Time;durP1;ratioP1;P1;durP2;ratioP2;P2;SDS_P1;SDS_P2;PMS_P1;PMS_P2;Temp;Humidity;BMP_temperature;BMP_pressure;BME280_temperature;BME280_humidity;BME280_pressure;Samples;Min_cycle;Max_cycle;Signal;HPM_P1;HPM_P2
2022/05/19 00:00:01;;;;;;;28.51;22.66;;;24.30;58.70;;;18.81;86.74;101549.00;172652;28;1380;-67
2022/05/19 00:00:08;;;;;;;28.24;22.45;;;24.30;58.70;;;18.79;86.50;101539.34;172652;28;1175;-67
2022/05/19 00:00:15;;;;;;;28.17;22.47;;;24.30;58.70;;;18.79;86.66;101542.00;172756;28;1133;-67
2022/05/19 00:00:23;;;;;;;27.80;22.30;;;24.30;58.70;;;18.80;86.75;101542.84;172720;28;982;-66
2022/05/19 00:00:29;;;;;;;28.03;22.67;;;24.30;58.70;;;18.81;86.69;101543.72;172712;28;966;-66
2022/05/19 00:01:01;;;;;;;27.23;22.58;;;24.30;58.70;;;18.82;86.68;101537.47;172597;28;1015;-67
2022/05/19 00:01:04;;;;;;;28.55;22.38;;;24.30;58.70;;;18.81;86.67;101538.44;172460;28;2484;-67
2022/05/19 00:01:10;;;;;;;31.30;21.96;;;24.30;58.70;;;18.80;86.58;101534.91;172581;28;1182;-66
2022/05/19 00:01:16;;;;;;;29.65;21.80;;;24.30;58.70;;;18.81;86.76;101543.72;172640;28;884;-67
2022/05/19 00:01:22;;;;;;;28.27;21.67;;;24.30;58.70;;;18.79;86.51;101536.72;172637;28;1056;-67
2022/05/19 00:01:28;;;;;;;27.33;21.55;;;24.30;58.70;;;18.79;86.64;101536.72;172643;28;959;-67
2022/05/19 00:01:34;;;;;;;24.90;21.40;;;24.30;58.70;;;18.79;86.61;101544.63;172617;28;1049;-68
2022/05/19 00:01:40;;;;;;;25.55;21.60;;;24.30;58.70;;;18.81;86.61;101538.44;172680;28;1014;-68
2022/05/19 00:01:45;;;;;;;25.80;21.75;;;24.30;58.70;;;18.79;86.63;101538.53;172643;28;987;-67
2022/05/19 00:01:54;;;;;;;26.30;22.07;;;24.30;58.70;;;18.79;86.53;101539.34;172665;28;1037;-67
2022/05/19 00:02:03;;;;;;;27.30;22.16;;;24.30;58.80;;;18.81;86.72;101535.78;172602;28;1086;-67
2022/05/19 00:02:12;;;;;;;28.71;22.37;;;24.30;58.80;;;18.79;86.80;101536.72;172554;28;1709;-68
2022/05/19 00:02:18;;;;;;;29.00;22.50;;;24.30;58.80;;;18.79;86.75;101536.72;172632;28;1149;-68
2022/05/19 00:02:25;;;;;;;28.33;22.63;;;24.30;58.80;;;18.79;86.80;101536.72;172673;28;1080;-68
2022/05/19 00:02:30;;;;;;;29.00;22.72;;;24.30;58.80;;;18.78;86.80;101537.66;172637;28;922;-68
2022/05/19 00:02:36;;;;;;;29.70;22.67;;;24.30;58.80;;;18.76;86.94;101536.94;172627;28;1100;-68
2022/05/19 00:02:42;;;;;;;30.77;22.67;;;24.30;58.80;;;18.77;86.91;101532.47;172689;28;887;-68
2022/05/19 00:02:48;;;;;;;30.83;22.38;;;24.30;58.90;;;18.77;87.07;101535.13;172628;28;1155;-68
2022/05/19 00:02:54;;;;;;;31.26;22.26;;;24.30;58.80;;;18.76;86.93;101536.94;172528;28;1006;-68
2022/05/19 00:03:00;;;;;;;30.90;22.33;;;24.30;58.90;;;18.77;87.06;101540.41;172644;28;931;-68
2022/05/19 00:03:05;;;;;;;30.30;22.52;;;24.30;58.90;;;18.78;87.04;101534.16;172650;28;926;-68
2022/05/19 00:03:11;;;;;;;28.63;22.53;;;24.30;58.90;;;18.77;87.08;101535.13;172749;28;1037;-68
2022/05/19 00:03:16;;;;;;;28.02;22.52;;;24.30;58.90;;;18.76;86.98;101526.38;172671;28;1113;-68
2022/05/19 00:03:22;;;;;;;28.50;22.58;;;24.30;58.90;;;18.73;87.18;101534.50;172681;28;866;-67
2022/05/19 00:03:29;;;;;;;28.73;22.50;;;24.30;58.90;;;18.62;87.80;101529.88;172732;28;918;-68
2022/05/19 00:03:38;;;;;;;28.84;22.68;;;24.30;58.90;;;18.58;88.05;101538.97;172688;28;1288;-68
2022/05/19 00:03:44;;;;;;;30.24;23.03;;;24.30;58.90;;;18.60;87.86;101536.22;172750;28;1078;-67
2022/05/19 00:03:50;;;;;;;31.10;23.10;;;24.30;58.90;;;18.62;87.74;101540.47;172705;28;1065;-68
2022/05/19 00:03:55;;;;;;;29.17;22.70;;;24.30;58.90;;;18.64;87.53;101532.44;172685;28;1038;-68
2022/05/19 00:04:01;;;;;;;28.08;22.13;;;24.30;58.90;;;18.65;87.61;101534.97;172676;28;1039;-67
2022/05/19 00:04:07;;;;;;;27.27;21.50;;;24.30;58.80;;;18.66;87.56;101530.56;172694;28;863;-67
2022/05/19 00:04:13;;;;;;;26.23;21.17;;;24.30;58.90;;;18.68;87.38;101539.22;172730;28;973;-67
2022/05/19 00:04:19;;;;;;;25.73;21.20;;;24.30;58.80;;;18.68;87.52;101531.28;172666;28;1099;-67
2022/05/19 00:04:27;;;;;;;26.88;21.63;;;24.30;58.90;;;18.69;87.38;101537.44;172676;28;1025;-67
2022/05/19 00:04:34;;;;;;;28.50;21.97;;;24.30;58.90;;;18.69;87.30;101533.00;172679;28;987;-67
2022/05/19 00:04:41;;;;;;;28.70;22.34;;;24.30;58.90;;;18.69;87.29;101534.78;172572;28;1230;-68
2022/05/19 00:04:46;;;;;;;28.96;22.52;;;24.30;58.90;;;18.65;87.54;101532.34;172598;28;1023;-67
2022/05/19 00:04:52;;;;;;;28.77;22.33;;;24.30;58.90;;;18.63;87.76;101533.41;172619;28;1077;-67
2022/05/19 00:04:58;;;;;;;29.35;22.55;;;24.30;58.90;;;18.62;87.71;101529.88;172603;28;892;-67
2022/05/19 00:05:04;;;;;;;30.33;22.53;;;24.30;58.90;;;18.62;87.82;101529.06;172632;28;852;-67
2022/05/19 00:05:10;;;;;;;31.43;22.80;;;24.30;58.90;;;18.64;87.71;101532.44;172712;28;1006;-67
2022/05/19 00:05:16;;;;;;;32.53;22.83;;;24.30;58.90;;;18.64;87.54;101532.44;172511;28;1442;-67
2022/05/19 00:05:22;;;;;;;32.33;22.90;;;24.30;58.90;;;18.66;87.57;101530.56;172648;28;1089;-67
2022/05/19 00:05:28;;;;;;;31.50;23.10;;;24.30;58.90;;;18.66;87.41;101530.56;171889;28;1546;-67
2022/05/19 00:05:33;;;;;;;30.20;23.10;;;24.30;58.90;;;18.66;87.62;101530.56;171999;28;907;-67
2022/05/19 00:05:39;;;;;;;29.02;22.95;;;24.30;58.90;;;18.67;87.40;101532.25;172002;28;1053;-67
2022/05/19 00:05:45;;;;;;;28.17;23.03;;;24.30;58.90;;;18.67;87.64;101526.94;171976;28;1090;-67
2022/05/19 00:05:50;;;;;;;28.77;23.00;;;24.30;58.90;;;18.66;87.53;101531.41;171965;28;1093;-67
2022/05/19 00:05:58;;;;;;;28.63;22.80;;;24.30;58.90;;;18.67;87.50;101529.59;171896;28;1863;-67
2022/05/19 00:06:08;;;;;;;28.94;22.66;;;24.30;58.90;;;18.67;87.54;101532.25;171991;28;1184;-67
2022/05/19 00:06:14;;;;;;;30.17;22.57;;;24.30;59.00;;;18.67;87.56;101534.88;171973;28;1266;-67
2022/05/19 00:06:20;;;;;;;28.98;22.33;;;24.30;59.00;;;18.68;87.66;101527.81;171915;28;998;-67
2022/05/19 00:06:26;;;;;;;29.27;22.40;;;24.30;59.00;;;18.68;87.41;101527.81;171976;28;970;-67
2022/05/19 00:06:31;;;;;;;28.40;22.45;;;24.30;59.00;;;18.68;87.57;101530.47;171965;28;1093;-67
2022/05/19 00:06:38;;;;;;;27.50;22.55;;;24.30;59.00;;;18.68;87.50;101530.47;172098;28;1026;-67
2022/05/19 00:06:43;;;;;;;27.00;22.63;;;24.30;59.00;;;18.68;87.38;101522.53;172704;28;915;-67
2022/05/19 00:06:49;;;;;;;27.80;22.67;;;24.30;59.00;;;18.68;87.45;101530.47;172649;28;864;-67
2022/05/19 00:06:56;;;;;;;28.63;22.67;;;24.30;59.00;;;18.68;87.54;101528.63;172623;28;879;-67
2022/05/19 00:07:02;;;;;;;28.02;22.52;;;24.30;58.90;;;18.68;87.29;101527.81;172659;28;963;-67
2022/05/19 00:07:10;;;;;;;29.43;22.70;;;24.30;58.90;;;18.68;87.31;101528.63;172611;28;1125;-67
2022/05/19 00:07:18;;;;;;;29.67;23.10;;;24.30;58.90;;;18.67;87.32;101526.94;172683;28;895;-67
2022/05/19 00:07:23;;;;;;;29.24;23.12;;;24.30;58.90;;;18.68;87.32;101531.28;172623;28;1109;-67
2022/05/19 00:07:29;;;;;;;30.13;23.48;;;24.30;58.90;;;18.68;87.24;101526.00;172720;28;1037;-67
2022/05/19 00:07:35;;;;;;;30.23;23.67;;;24.30;58.90;;;18.67;87.27;101529.59;172683;28;1014;-67
2022/05/19 00:07:41;;;;;;;30.50;23.45;;;24.30;58.90;;;18.57;88.01;101528.53;172740;28;832;-67
2022/05/19 00:07:46;;;;;;;31.25;23.02;;;24.30;58.90;;;18.38;88.84;101533.19;172691;28;871;-67
2022/05/19 00:07:52;;;;;;;30.58;23.00;;;24.30;58.90;;;18.30;89.24;101524.91;172675;28;1101;-67
2022/05/19 00:07:58;;;;;;;30.35;22.98;;;24.30;58.90;;;18.28;89.32;101529.47;172698;28;1037;-67
2022/05/19 00:08:04;;;;;;;29.57;22.53;;;24.30;58.90;;;18.24;89.84;101531.44;172692;28;1076;-67
2022/05/19 00:08:10;;;;;;;28.17;22.25;;;24.30;58.90;;;18.21;90.37;101533.44;172674;28;962;-67
2022/05/19 00:08:15;;;;;;;26.98;22.25;;;24.30;58.90;;;18.20;90.61;101532.59;172427;28;1481;-67
2022/05/19 00:08:21;;;;;;;27.25;21.95;;;24.20;58.90;;;18.21;90.44;101536.94;172676;28;891;-67
2022/05/19 00:08:28;;;;;;;26.67;21.80;;;24.20;58.90;;;18.29;89.72;101523.22;172551;28;734;-67
2022/05/19 00:08:37;;;;;;;27.08;21.84;;;24.30;58.90;;;18.35;89.47;101527.28;171881;28;1189;-67
2022/05/19 00:08:43;;;;;;;27.87;21.83;;;24.30;58.90;;;18.38;89.25;101516.50;172029;28;1046;-67
2022/05/19 00:08:48;;;;;;;27.98;21.85;;;24.30;58.90;;;18.41;88.85;101526.88;171964;28;1089;-67
2022/05/19 00:08:54;;;;;;;27.67;21.80;;;24.20;58.90;;;18.44;88.74;101524.03;171962;28;939;-67
2022/05/19 00:09:00;;;;;;;27.15;21.60;;;24.20;58.90;;;18.46;88.65;101524.78;171992;28;911;-67
2022/05/19 00:09:05;;;;;;;26.50;21.47;;;24.30;58.90;;;18.47;88.47;101530.94;171961;28;951;-67
2022/05/19 00:09:12;;;;;;;26.25;21.35;;;24.30;58.90;;;18.49;88.46;101523.72;171930;28;996;-67
2022/05/19 00:09:20;;;;;;;25.88;21.54;;;24.30;58.90;;;18.51;88.30;101532.41;171966;28;963;-67
2022/05/19 00:09:26;;;;;;;26.06;21.64;;;24.20;58.90;;;18.52;88.44;101532.28;171957;28;967;-67
2022/05/19 00:09:33;;;;;;;27.38;22.18;;;24.30;58.90;;;18.52;88.20;101524.38;171941;28;1085;-67
2022/05/19 00:09:38;;;;;;;28.65;22.90;;;24.20;58.90;;;18.55;88.15;101530.41;171962;28;1090;-67
2022/05/19 00:09:44;;;;;;;29.08;22.92;;;24.20;58.90;;;18.55;87.99;101522.47;172015;28;907;-67
2022/05/19 00:09:52;;;;;;;29.60;22.77;;;24.20;58.90;;;18.56;88.21;101529.47;171951;28;971;-67
2022/05/19 00:09:58;;;;;;;29.46;22.92;;;24.20;58.90;;;18.57;88.04;101525.88;171970;28;923;-66
2022/05/19 00:10:05;;;;;;;28.92;22.55;;;24.30;59.00;;;18.56;87.97;101522.38;171970;28;907;-67
2022/05/19 00:10:10;;;;;;;28.62;22.00;;;24.20;59.00;;;18.58;88.10;101527.56;171977;28;994;-67
2022/05/19 00:10:16;;;;;;;28.15;21.92;;;24.20;59.00;;;18.58;87.94;101525.75;171882;28;1110;-66
2022/05/19 00:10:22;;;;;;;28.33;21.95;;;24.30;59.00;;;18.58;88.05;101527.56;171977;28;975;-67
2022/05/19 00:10:28;;;;;;;28.05;21.98;;;24.30;59.00;;;18.59;87.89;101521.31;172632;28;938;-66
2022/05/19 00:10:34;;;;;;;27.57;22.33;;;24.30;59.00;;;18.58;88.00;101524.94;172657;28;899;-67
2022/05/19 00:10:40;;;;;;;27.40;23.05;;;24.20;59.00;;;18.60;87.98;101525.66;172632;28;977;-66
2022/05/19 00:10:46;;;;;;;28.13;23.40;;;24.20;59.10;;;18.59;87.83;101526.63;172658;28;1113;-67
2022/05/19 00:10:57;;;;;;;27.95;23.63;;;24.20;59.00;;;18.59;87.88;101523.97;172635;28;1160;-66
2022/05/19 00:11:12;;;;;;;28.25;23.84;;;24.20;59.10;;;18.61;87.89;101527.38;171840;28;1422;-66
2022/05/19 00:11:29;;;;;;;27.59;23.38;;;24.20;59.10;;;18.62;87.79;101529.06;171924;28;1266;-66
2022/05/19 00:11:36;;;;;;;27.59;22.99;;;24.20;59.10;;;18.62;87.90;101523.78;171938;28;1255;-67
2022/05/19 00:11:44;;;;;;;30.13;23.60;;;24.20;59.10;;;18.62;87.66;101523.78;172026;28;1148;-67
2022/05/19 00:11:54;;;;;;;31.38;23.87;;;24.20;59.10;;;18.62;87.68;101518.50;171874;28;1230;-67
2022/05/19 00:12:08;;;;;;;31.83;24.50;;;24.20;59.10;;;18.62;87.55;101521.13;171982;28;1173;-67
2022/05/19 00:12:21;;;;;;;30.04;24.04;;;24.20;59.10;;;18.62;87.65;101521.97;172157;28;1267;-67
2022/05/19 00:12:28;;;;;;;27.13;22.80;;;24.20;59.10;;;18.61;87.76;101520.28;172662;28;1254;-67
2022/05/19 00:12:35;;;;;;;25.28;22.02;;;24.20;59.10;;;18.62;87.68;101519.31;172636;28;975;-66
2022/05/19 00:12:40;;;;;;;25.67;22.03;;;24.20;59.10;;;18.62;87.64;101521.97;172634;28;971;-66
2022/05/19 00:12:46;;;;;;;26.08;22.23;;;24.20;59.10;;;18.62;87.56;101523.78;172646;28;863;-66
2022/05/19 00:12:52;;;;;;;26.08;22.52;;;24.20;59.10;;;18.63;87.78;101520.19;172626;28;1109;-67
2022/05/19 00:12:57;;;;;;;26.73;22.60;;;24.20;59.10;;;18.63;87.88;101517.53;172633;28;1018;-66
2022/05/19 00:13:03;;;;;;;27.85;23.02;;;24.20;59.10;;;18.62;87.70;101521.97;172653;28;911;-66
2022/05/19 00:13:09;;;;;;;27.63;22.77;;;24.20;59.10;;;18.63;87.68;101517.53;172633;28;1252;-67
2022/05/19 00:13:14;;;;;;;27.30;22.67;;;24.20;59.10;;;18.63;87.60;101515.75;172690;28;1096;-67
2022/05/19 00:13:20;;;;;;;28.08;22.63;;;24.20;59.10;;;18.63;87.76;101525.47;172526;28;926;-67
2022/05/19 00:13:29;;;;;;;28.15;22.77;;;24.20;59.10;;;18.61;87.57;101522.91;172642;28;1042;-67
2022/05/19 00:13:36;;;;;;;27.97;22.93;;;24.20;59.10;;;18.61;87.90;101522.09;172644;28;884;-67
2022/05/19 00:13:43;;;;;;;29.02;23.17;;;24.20;59.10;;;18.60;87.62;101521.22;172660;28;1133;-67
2022/05/19 00:13:48;;;;;;;29.17;23.13;;;24.20;59.10;;;18.61;87.57;101522.09;172689;28;988;-67
2022/05/19 00:13:54;;;;;;;28.93;22.87;;;24.20;59.10;;;18.62;87.30;101526.41;172705;28;848;-67
2022/05/19 00:14:01;;;;;;;29.20;22.42;;;24.20;59.10;;;18.62;87.77;101513.22;172676;28;1108;-67
2022/05/19 00:14:09;;;;;;;27.98;22.24;;;24.20;59.10;;;18.62;87.65;101523.78;172688;28;1152;-67
2022/05/19 00:14:16;;;;;;;27.25;22.38;;;24.20;59.10;;;18.62;87.57;101521.13;172715;28;1086;-67
2022/05/19 00:14:22;;;;;;;27.58;22.72;;;24.10;59.10;;;18.61;87.60;101520.28;172674;28;891;-67
2022/05/19 00:14:28;;;;;;;27.27;22.80;;;24.20;59.10;;;18.61;87.71;101517.63;172681;28;1089;-67
2022/05/19 00:14:34;;;;;;;27.70;23.02;;;24.20;59.10;;;18.61;87.73;101520.28;172674;28;939;-67
2022/05/19 00:14:40;;;;;;;27.80;22.98;;;24.20;59.10;;;18.61;87.86;101522.91;172647;28;1089;-66
2022/05/19 00:14:46;;;;;;;27.48;22.75;;;24.20;59.20;;;18.61;87.60;101519.44;172720;28;998;-67
2022/05/19 00:14:52;;;;;;;26.63;22.50;;;24.20;59.10;;;18.62;87.68;101521.13;172715;28;911;-67
2022/05/19 00:14:57;;;;;;;26.55;22.50;;;24.10;59.20;;;18.61;87.83;101522.09;172721;28;867;-67
2022/05/19 00:15:05;;;;;;;26.43;22.20;;;24.20;59.10;;;18.60;87.65;101520.38;172692;28;914;-67
2022/05/19 00:15:12;;;;;;;27.65;22.23;;;24.20;59.10;;;18.59;87.62;101518.69;172669;28;979;-66
2022/05/19 00:15:18;;;;;;;28.00;22.57;;;24.20;59.10;;;18.57;87.83;101520.59;172663;28;1171;-66
2022/05/19 00:15:23;;;;;;;29.33;22.70;;;24.10;59.10;;;18.57;87.93;101520.59;172653;28;1073;-66
2022/05/19 00:15:29;;;;;;;29.73;23.05;;;24.20;59.10;;;18.58;87.89;101522.28;172640;28;865;-67
2022/05/19 00:15:35;;;;;;;30.15;23.33;;;24.20;59.10;;;18.58;87.94;101517.00;172670;28;994;-66
2022/05/19 00:15:40;;;;;;;30.27;23.30;;;24.20;59.20;;;18.59;87.65;101518.69;172666;28;1097;-66
2022/05/19 00:15:46;;;;;;;29.98;23.05;;;24.20;59.20;;;18.59;87.63;101514.25;172717;28;1133;-66
2022/05/19 00:15:52;;;;;;;27.88;22.65;;;24.20;59.10;;;18.59;87.88;101518.69;172708;28;907;-66
2022/05/19 00:15:58;;;;;;;28.00;22.63;;;24.20;59.10;;;18.59;87.75;101514.25;172661;28;1074;-67
2022/05/19 00:16:05;;;;;;;27.90;22.47;;;24.10;59.10;;;18.60;87.94;101515.09;172707;28;950;-67
2022/05/19 00:16:11;;;;;;;26.30;22.70;;;24.20;59.10;;;18.58;87.82;101511.72;172738;28;934;-67
2022/05/19 00:16:17;;;;;;;26.83;22.92;;;24.20;59.10;;;18.58;87.86;101523.13;172691;28;1086;-67
2022/05/19 00:16:22;;;;;;;28.13;23.00;;;24.20;59.10;;;18.58;87.85;101515.19;172656;28;1050;-67
2022/05/19 00:16:29;;;;;;;28.50;22.93;;;24.20;59.10;;;18.56;88.00;101516.25;172696;28;1146;-67
2022/05/19 00:16:34;;;;;;;28.33;23.05;;;24.10;59.10;;;18.58;88.03;101517.00;172686;28;986;-66
2022/05/19 00:16:41;;;;;;;28.77;23.17;;;24.20;59.20;;;18.58;87.88;101517.00;172648;28;2052;-66
2022/05/19 00:16:47;;;;;;;28.90;23.16;;;24.20;59.20;;;18.58;87.98;101517.81;172684;28;1144;-67
2022/05/19 00:16:56;;;;;;;28.65;23.52;;;24.10;59.20;;;18.58;88.14;101514.34;172690;28;1093;-67
2022/05/19 00:17:02;;;;;;;28.19;23.66;;;24.20;59.20;;;18.58;87.87;101509.06;172685;28;1193;-67
2022/05/19 00:17:09;;;;;;;27.60;23.37;;;24.10;59.20;;;18.59;87.85;101518.69;172718;28;1070;-66
2022/05/19 00:17:15;;;;;;;28.17;23.40;;;24.20;59.20;;;18.58;87.95;101512.53;172753;28;868;-67
2022/05/19 00:17:21;;;;;;;28.50;23.23;;;24.10;59.20;;;18.58;87.86;101512.53;172706;28;1058;-67
2022/05/19 00:17:27;;;;;;;28.10;22.85;;;24.10;59.20;;;18.59;87.86;101518.69;171752;28;1021;-67
2022/05/19 00:17:33;;;;;;;28.73;22.57;;;24.10;59.20;;;18.58;87.85;101517.81;171788;28;1326;-66
2022/05/19 00:17:40;;;;;;;28.77;22.20;;;24.10;59.20;;;18.59;87.77;101518.69;172679;28;1000;-67
2022/05/19 00:17:45;;;;;;;29.54;22.14;;;24.10;59.20;;;18.58;87.80;101514.34;172726;28;1033;-67
2022/05/19 00:17:51;;;;;;;28.93;22.17;;;24.20;59.20;;;18.59;87.70;101518.69;172691;28;1001;-67
2022/05/19 00:17:57;;;;;;;31.15;22.63;;;24.20;59.20;;;18.57;87.86;101516.13;172713;28;915;-67
2022/05/19 00:18:03;;;;;;;31.63;22.95;;;24.10;59.20;;;18.55;87.98;101517.19;172692;28;1379;-67
2022/05/19 00:18:09;;;;;;;31.92;23.40;;;24.10;59.20;;;18.43;88.66;101511.75;172688;28;1029;-66
2022/05/19 00:18:15;;;;;;;32.03;23.48;;;24.10;59.20;;;18.30;89.41;101513.53;172698;28;1018;-66
2022/05/19 00:18:21;;;;;;;31.80;23.63;;;24.20;59.20;;;18.22;89.71;101512.22;172717;28;903;-66
2022/05/19 00:18:27;;;;;;;29.98;23.48;;;24.20;59.20;;;18.26;89.59;101507.56;172677;28;1090;-66
2022/05/19 00:18:37;;;;;;;29.38;23.35;;;24.20;59.20;;;18.31;89.44;101512.56;172697;28;1088;-66
2022/05/19 00:18:42;;;;;;;28.79;23.06;;;24.20;59.20;;;18.32;89.30;101516.91;172710;28;1164;-67
2022/05/19 00:18:48;;;;;;;29.33;22.80;;;24.10;59.20;;;18.34;89.04;101512.38;172707;28;911;-67
2022/05/19 00:18:54;;;;;;;28.70;22.42;;;24.20;59.20;;;18.37;88.96;101513.00;172659;28;1042;-67
2022/05/19 00:19:00;;;;;;;28.67;22.30;;;24.10;59.20;;;18.39;88.77;101507.63;172557;28;947;-67
2022/05/19 00:19:06;;;;;;;28.77;22.20;;;24.20;59.20;;;18.41;88.85;101516.31;172636;28;971;-67
2022/05/19 00:19:14;;;;;;;28.52;22.20;;;24.10;59.10;;;18.43;88.89;101511.75;172676;28;1169;-67
2022/05/19 00:19:20;;;;;;;28.30;22.65;;;24.20;59.20;;;18.44;88.57;101510.81;172653;28;987;-67
2022/05/19 00:19:27;;;;;;;28.65;23.10;;;24.10;59.20;;;18.45;88.73;101512.53;172559;28;1471;-67
2022/05/19 00:19:33;;;;;;;28.80;23.12;;;24.10;59.20;;;18.46;88.32;101514.22;172627;28;906;-67
2022/05/19 00:19:38;;;;;;;29.10;23.75;;;24.10;59.20;;;18.47;88.27;101509.78;172629;28;896;-67
2022/05/19 00:19:44;;;;;;;28.67;23.85;;;24.10;59.20;;;18.47;88.31;101515.91;172649;28;1010;-67
2022/05/19 00:19:51;;;;;;;29.07;23.83;;;24.10;59.20;;;18.48;88.31;101517.59;172657;28;1254;-67
2022/05/19 00:19:58;;;;;;;28.68;23.92;;;24.10;59.20;;;18.45;88.53;101507.25;172643;28;1057;-67
2022/05/19 00:20:04;;;;;;;27.90;24.12;;;24.10;59.20;;;18.40;88.99;101509.31;172660;28;915;-67
2022/05/19 00:20:10;;;;;;;28.54;24.18;;;24.10;59.20;;;18.43;88.66;101513.53;172631;28;987;-67
2022/05/19 00:20:16;;;;;;;29.13;23.80;;;24.10;59.20;;;18.40;88.58;101514.59;171889;28;1067;-67
2022/05/19 00:20:22;;;;;;;27.73;23.27;;;24.10;59.20;;;18.33;89.64;101513.31;171961;28;1030;-67
2022/05/19 00:20:27;;;;;;;28.65;23.33;;;24.10;59.20;;;18.34;89.34;101509.72;171972;28;1172;-67
2022/05/19 00:20:33;;;;;;;29.50;23.27;;;24.10;59.20;;;18.37;89.00;101512.19;171976;28;919;-67
2022/05/19 00:20:39;;;;;;;28.75;23.08;;;24.10;59.20;;;18.39;88.95;101512.91;171941;28;1401;-67
2022/05/19 00:20:46;;;;;;;27.60;22.88;;;24.10;59.20;;;18.40;88.82;101517.25;171976;28;893;-67
2022/05/19 00:20:53;;;;;;;29.18;23.44;;;24.10;59.20;;;18.41;88.58;101513.69;171861;28;1035;-67
2022/05/19 00:20:59;;;;;;;28.93;23.30;;;24.10;59.20;;;18.43;88.54;101511.75;171971;28;1129;-67
2022/05/19 00:21:05;;;;;;;28.05;23.17;;;24.10;59.20;;;18.44;88.63;101520.56;171971;28;1034;-67
2022/05/19 00:21:11;;;;;;;29.48;23.70;;;24.10;59.20;;;18.43;88.37;101514.41;171988;28;864;-68
2022/05/19 00:21:17;;;;;;;29.25;23.90;;;24.10;59.20;;;18.45;88.45;101515.16;171997;28;1006;-67
2022/05/19 00:21:23;;;;;;;30.23;24.27;;;24.10;59.20;;;18.44;88.40;101516.09;172145;28;1073;-67
2022/05/19 00:21:29;;;;;;;30.42;24.42;;;24.10;59.20;;;18.45;88.51;101507.25;172659;28;931;-68
2022/05/19 00:21:35;;;;;;;30.67;24.60;;;24.10;59.20;;;18.46;88.47;101513.34;172601;28;835;-67
2022/05/19 00:21:42;;;;;;;29.95;24.38;;;24.10;59.30;;;18.45;88.78;101512.53;172539;28;1185;-67
2022/05/19 00:21:48;;;;;;;29.76;24.22;;;24.10;59.30;;;18.46;88.53;101511.56;172589;28;1481;-66
2022/05/19 00:21:54;;;;;;;28.37;24.30;;;24.20;59.30;;;18.46;88.45;101511.56;172661;28;942;-67
2022/05/19 00:22:00;;;;;;;27.95;24.35;;;24.10;59.30;;;18.47;88.61;101517.72;172627;28;1068;-67
2022/05/19 00:22:07;;;;;;;29.83;24.63;;;24.10;59.30;;;18.47;88.40;101521.19;172689;28;991;-67
2022/05/19 00:22:13;;;;;;;29.85;24.63;;;24.10;59.30;;;18.48;88.52;101509.66;172772;28;907;-67
2022/05/19 00:22:19;;;;;;;28.80;24.20;;;24.10;59.30;;;18.45;88.74;101512.53;173314;28;1026;-67
2022/05/19 00:22:25;;;;;;;29.73;24.20;;;24.10;59.30;;;18.39;88.98;101512.91;173328;28;994;-67
2022/05/19 00:22:30;;;;;;;30.05;24.25;;;24.10;59.30;;;18.34;89.27;101515.84;173322;28;851;-67
2022/05/19 00:22:36;;;;;;;28.30;23.90;;;24.10;59.30;;;18.34;89.16;101509.72;173300;28;1132;-67
2022/05/19 00:22:42;;;;;;;27.65;23.88;;;24.10;59.30;;;18.37;89.08;101513.00;173308;28;1092;-67
2022/05/19 00:22:47;;;;;;;28.05;23.90;;;24.10;59.30;;;18.38;88.92;101512.06;173311;28;1046;-67
2022/05/19 00:22:55;;;;;;;29.27;24.00;;;24.10;59.30;;;18.40;88.56;101510.19;173318;28;1041;-67
2022/05/19 00:23:01;;;;;;;29.63;23.87;;;24.10;59.30;;;18.42;88.66;101506.56;173345;28;946;-67
2022/05/19 00:23:06;;;;;;;28.58;23.73;;;24.10;59.30;;;18.43;88.51;101509.13;173309;28;911;-67
2022/05/19 00:23:13;;;;;;;29.27;23.77;;;24.10;59.30;;;18.44;88.62;101517.91;173332;28;859;-67
2022/05/19 00:23:19;;;;;;;30.65;24.10;;;24.10;59.30;;;18.44;88.40;101510.81;173235;28;1449;-67
2022/05/19 00:23:25;;;;;;;29.67;23.88;;;24.10;59.30;;;18.43;88.59;101511.75;173301;28;942;-67
2022/05/19 00:23:31;;;;;;;29.48;24.08;;;24.10;59.30;;;18.42;88.64;101511.88;173315;28;923;-68
2022/05/19 00:23:36;;;;;;;31.52;24.45;;;24.10;59.30;;;18.41;88.37;101508.38;173320;28;1291;-67
2022/05/19 00:23:42;;;;;;;32.22;24.52;;;24.10;59.30;;;18.42;88.61;101512.72;172695;28;847;-69
2022/05/19 00:23:48;;;;;;;31.23;24.13;;;24.10;59.30;;;18.43;88.52;101510.91;172673;28;982;-67
2022/05/19 00:23:54;;;;;;;31.13;24.30;;;24.10;59.30;;;18.43;88.64;101514.41;172714;28;1069;-67
2022/05/19 00:24:00;;;;;;;30.98;24.05;;;24.10;59.30;;;18.44;88.54;101510.81;172671;28;1327;-67
2022/05/19 00:24:09;;;;;;;29.73;23.77;;;24.10;59.30;;;18.44;88.64;101505.53;172696;28;1089;-67
2022/05/19 00:24:16;;;;;;;29.80;23.93;;;24.00;59.30;;;18.45;88.54;101511.66;172733;28;974;-67
2022/05/19 00:24:22;;;;;;;29.23;24.00;;;24.10;59.40;;;18.46;88.41;101518.63;172716;28;895;-67
2022/05/19 00:24:29;;;;;;;30.33;24.07;;;24.00;59.40;;;18.45;88.50;101512.53;172709;28;971;-67
2022/05/19 00:24:35;;;;;;;30.27;24.23;;;24.10;59.30;;;18.46;88.32;101516.00;172725;28;1227;-67
2022/05/19 00:24:40;;;;;;;29.58;24.20;;;24.10;59.30;;;18.46;88.39;101514.22;172688;28;1136;-67
2022/05/19 00:24:46;;;;;;;29.00;24.25;;;24.10;59.30;;;18.47;88.40;101515.06;172726;28;1085;-67
2022/05/19 00:24:52;;;;;;;29.47;24.40;;;24.10;59.30;;;18.47;88.17;101515.06;172709;28;961;-67
2022/05/19 00:24:57;;;;;;;29.13;24.27;;;24.00;59.30;;;18.47;88.48;101509.78;172689;28;922;-67
2022/05/19 00:25:04;;;;;;;28.85;24.13;;;24.10;59.30;;;18.47;88.19;101510.63;172595;28;955;-67
2022/05/19 00:25:10;;;;;;;28.00;23.77;;;24.00;59.30;;;18.47;88.04;101510.63;172649;28;958;-67
2022/05/19 00:25:15;;;;;;;27.52;23.50;;;24.10;59.30;;;18.47;88.36;101509.78;172677;28;855;-67
2022/05/19 00:25:22;;;;;;;26.85;23.35;;;24.10;59.30;;;18.47;88.10;101510.63;172621;28;1281;-67
2022/05/19 00:25:28;;;;;;;25.90;23.10;;;24.10;59.40;;;18.46;88.41;101508.94;172629;28;1077;-67
2022/05/19 00:25:33;;;;;;;26.05;23.02;;;24.10;59.40;;;18.47;88.34;101510.63;172581;28;946;-67
2022/05/19 00:25:39;;;;;;;26.83;23.35;;;24.00;59.40;;;18.47;88.38;101515.91;172638;28;868;-67
2022/05/19 00:25:45;;;;;;;28.03;23.53;;;24.00;59.40;;;18.47;88.22;101515.91;172697;28;891;-67
2022/05/19 00:25:52;;;;;;;29.10;23.52;;;24.00;59.40;;;18.47;88.04;101515.91;172521;28;1006;-67
2022/05/19 00:25:57;;;;;;;28.95;23.50;;;24.00;59.40;;;18.49;88.26;101507.88;172656;28;1057;-67
2022/05/19 00:26:03;;;;;;;28.90;23.27;;;24.00;59.30;;;18.48;88.17;101514.13;172614;28;851;-68
2022/05/19 00:26:09;;;;;;;30.20;23.20;;;24.00;59.30;;;18.48;88.39;101514.13;172652;28;1071;-68
2022/05/19 00:26:15;;;;;;;30.27;23.33;;;24.00;59.30;;;18.47;88.26;101515.91;172700;28;863;-68
2022/05/19 00:26:21;;;;;;;30.90;23.77;;;24.00;59.40;;;18.43;88.74;101514.41;172664;28;914;-67
2022/05/19 00:26:26;;;;;;;30.90;23.88;;;24.10;59.40;;;18.33;89.15;101511.53;172623;28;1109;-67
2022/05/19 00:26:32;;;;;;;31.67;24.38;;;24.00;59.40;;;18.24;89.63;101515.59;172635;28;855;-67
2022/05/19 00:26:38;;;;;;;30.17;24.52;;;24.00;59.40;;;18.20;90.08;101511.47;172620;28;1105;-67
2022/05/19 00:26:44;;;;;;;29.70;24.53;;;24.10;59.40;;;18.22;90.05;101514.88;172682;28;907;-67
2022/05/19 00:26:50;;;;;;;28.77;24.20;;;24.00;59.40;;;18.24;89.63;101515.59;172683;28;888;-67
2022/05/19 00:26:56;;;;;;;28.05;24.15;;;24.00;59.40;;;18.28;89.46;101511.81;172625;28;1195;-67
2022/05/19 00:27:02;;;;;;;27.15;23.77;;;24.00;59.40;;;18.31;89.19;101510.78;172665;28;919;-67